sensor_id;sensor_type;location;lat;lon;timestamp;pressure;altitude;pressure_sealevel;temperature;humidity
29733;BME280;16643;43.158;25.302;2022-11-20T00:00:43;97370.28;;;12.10;100.00
29733;BME280;16643;43.158;25.302;2022-11-20T00:03:08;97361.03;;;12.04;100.00
29733;BME280;16643;43.158;25.302;2022-11-20T00:05:34;97370.97;;;11.96;100.00
29733;BME280;16643;43.158;25.302;2022-11-20T00:07:59;97341.88;;;12.05;100.00
29733;BME280;16643;43.158;25.302;2022-11-20T00:10:25;97342.13;;;12.18;100.00
29733;BME280;16643;43.158;25.302;2022-11-20T00:12:51;97337.66;;;12.20;100.00
29733;BME280;16643;43.158;25.302;2022-11-20T00:15:17;97356.22;;;12.48;100.00
29733;BME280;16643;43.158;25.302;2022-11-20T00:17:43;97322.78;;;12.56;100.00
29733;BME280;16643;43.158;25.302;2022-11-20T00:20:09;97373.78;;;13.29;100.00
29733;BME280;16643;43.158;25.302;2022-11-20T00:22:35;97359.63;;;13.33;100.00
29733;BME280;16643;43.158;25.302;2022-11-20T00:25:00;97353.06;;;13.26;100.00
29733;BME280;16643;43.158;25.302;2022-11-20T00:27:26;97358.06;;;13.47;100.00
29733;BME280;16643;43.158;25.302;2022-11-20T00:29:51;97345.41;;;13.55;100.00
29733;BME280;16643;43.158;25.302;2022-11-20T00:32:17;97337.91;;;13.33;100.00
29733;BME280;16643;43.158;25.302;2022-11-20T00:34:42;97347.41;;;13.18;100.00
29733;BME280;16643;43.158;25.302;2022-11-20T00:37:12;97343.03;;;13.19;100.00
29733;BME280;16643;43.158;25.302;2022-11-20T00:39:38;97341.91;;;13.40;100.00
29733;BME280;16643;43.158;25.302;2022-11-20T00:42:04;97342.00;;;13.54;100.00
29733;BME280;16643;43.158;25.302;2022-11-20T00:44:29;97344.03;;;13.65;100.00
29733;BME280;16643;43.158;25.302;2022-11-20T00:46:55;97323.53;;;13.57;100.00
29733;BME280;16643;43.158;25.302;2022-11-20T00:49:20;97335.84;;;13.87;100.00
29733;BME280;16643;43.158;25.302;2022-11-20T00:51:46;97367.34;;;13.99;100.00
29733;BME280;16643;43.158;25.302;2022-11-20T00:54:12;97333.22;;;13.87;100.00
29733;BME280;16643;43.158;25.302;2022-11-20T00:56:38;97345.44;;;13.86;100.00
29733;BME280;16643;43.158;25.302;2022-11-20T00:59:03;97337.69;;;13.85;100.00
29733;BME280;16643;43.158;25.302;2022-11-20T01:01:29;97346.59;;;13.96;100.00
29733;BME280;16643;43.158;25.302;2022-11-20T01:03:56;97329.50;;;13.91;100.00
29733;BME280;16643;43.158;25.302;2022-11-20T01:06:34;97289.59;;;13.57;100.00
29733;BME280;16643;43.158;25.302;2022-11-20T01:09:04;97336.56;;;14.04;100.00
29733;BME280;16643;43.158;25.302;2022-11-20T01:11:32;97335.63;;;14.35;100.00
29733;BME280;16643;43.158;25.302;2022-11-20T01:14:00;97319.78;;;14.68;100.00
29733;BME280;16643;43.158;25.302;2022-11-20T01:16:30;97317.38;;;14.94;100.00
29733;BME280;16643;43.158;25.302;2022-11-20T01:18:58;97321.38;;;15.42;100.00
29733;BME280;16643;43.158;25.302;2022-11-20T01:21:28;97331.16;;;15.81;100.00
29733;BME280;16643;43.158;25.302;2022-11-20T01:23:54;97314.03;;;15.75;100.00
29733;BME280;16643;43.158;25.302;2022-11-20T01:26:23;97313.47;;;16.11;100.00
29733;BME280;16643;43.158;25.302;2022-11-20T01:28:49;97315.66;;;16.17;100.00
29733;BME280;16643;43.158;25.302;2022-11-20T01:31:21;97314.50;;;16.09;100.00
29733;BME280;16643;43.158;25.302;2022-11-20T01:33:49;97304.56;;;16.14;100.00
29733;BME280;16643;43.158;25.302;2022-11-20T01:36:16;97322.22;;;16.37;100.00
29733;BME280;16643;43.158;25.302;2022-11-20T01:38:42;97322.56;;;16.45;100.00
29733;BME280;16643;43.158;25.302;2022-11-20T01:41:09;97306.00;;;16.57;100.00
29733;BME280;16643;43.158;25.302;2022-11-20T01:43:35;97325.34;;;16.82;100.00
29733;BME280;16643;43.158;25.302;2022-11-20T01:46:03;97326.28;;;16.93;99.44
29733;BME280;16643;43.158;25.302;2022-11-20T01:48:43;97310.03;;;16.76;99.35
29733;BME280;16643;43.158;25.302;2022-11-20T01:51:17;97311.31;;;16.70;99.56
29733;BME280;16643;43.158;25.302;2022-11-20T01:53:44;97304.78;;;16.76;99.21
29733;BME280;16643;43.158;25.302;2022-11-20T01:56:12;97315.81;;;16.81;99.02
29733;BME280;16643;43.158;25.302;2022-11-20T01:58:44;97315.28;;;16.88;97.97
29733;BME280;16643;43.158;25.302;2022-11-20T02:01:12;97332.72;;;17.15;97.06
29733;BME280;16643;43.158;25.302;2022-11-20T02:03:39;97339.97;;;17.24;96.37
29733;BME280;16643;43.158;25.302;2022-11-20T02:06:22;97333.84;;;17.36;95.17
29733;BME280;16643;43.158;25.302;2022-11-20T02:08:48;97307.91;;;17.31;94.93
29733;BME280;16643;43.158;25.302;2022-11-20T02:11:14;97318.06;;;17.49;94.08
29733;BME280;16643;43.158;25.302;2022-11-20T02:13:40;97288.56;;;17.32;93.71
29733;BME280;16643;43.158;25.302;2022-11-20T02:16:25;97313.66;;;17.49;93.38
29733;BME280;16643;43.158;25.302;2022-11-20T02:18:52;97311.66;;;17.40;93.20
29733;BME280;16643;43.158;25.302;2022-11-20T02:24:07;97297.03;;;17.49;91.50
29733;BME280;16643;43.158;25.302;2022-11-20T02:29:15;97277.06;;;17.46;90.97
29733;BME280;16643;43.158;25.302;2022-11-20T02:31:43;97281.34;;;17.60;90.40
29733;BME280;16643;43.158;25.302;2022-11-20T02:34:09;97294.91;;;17.66;90.12
29733;BME280;16643;43.158;25.302;2022-11-20T02:36:36;97257.81;;;17.58;89.19
29733;BME280;16643;43.158;25.302;2022-11-20T02:39:05;97276.41;;;17.68;89.54
29733;BME280;16643;43.158;25.302;2022-11-20T02:41:35;97278.09;;;17.69;89.32
29733;BME280;16643;43.158;25.302;2022-11-20T02:44:02;97248.13;;;17.71;88.24
29733;BME280;16643;43.158;25.302;2022-11-20T02:46:29;97245.06;;;17.65;88.21
29733;BME280;16643;43.158;25.302;2022-11-20T02:48:55;97231.84;;;17.54;88.26
29733;BME280;16643;43.158;25.302;2022-11-20T02:51:20;97261.13;;;17.73;88.00
29733;BME280;16643;43.158;25.302;2022-11-20T02:53:46;97235.41;;;17.65;87.94
29733;BME280;16643;43.158;25.302;2022-11-20T02:56:12;97235.19;;;17.56;88.28
29733;BME280;16643;43.158;25.302;2022-11-20T02:58:37;97223.34;;;17.50;88.11
29733;BME280;16643;43.158;25.302;2022-11-20T03:01:03;97237.94;;;17.54;88.41
29733;BME280;16643;43.158;25.302;2022-11-20T03:03:29;97225.97;;;17.50;88.88
29733;BME280;16643;43.158;25.302;2022-11-20T03:05:54;97218.81;;;17.52;88.58
29733;BME280;16643;43.158;25.302;2022-11-20T03:08:20;97189.53;;;17.46;87.55
29733;BME280;16643;43.158;25.302;2022-11-20T03:10:45;97243.84;;;17.82;87.54
29733;BME280;16643;43.158;25.302;2022-11-20T03:13:11;97240.72;;;17.76;88.27
29733;BME280;16643;43.158;25.302;2022-11-20T03:15:37;97220.16;;;17.70;87.81
29733;BME280;16643;43.158;25.302;2022-11-20T03:18:03;97232.25;;;17.60;88.44
29733;BME280;16643;43.158;25.302;2022-11-20T03:20:29;97250.28;;;17.77;88.13
29733;BME280;16643;43.158;25.302;2022-11-20T03:22:54;97256.94;;;17.70;88.20
29733;BME280;16643;43.158;25.302;2022-11-20T03:25:21;97251.47;;;17.61;88.46
29733;BME280;16643;43.158;25.302;2022-11-20T03:27:46;97260.63;;;17.68;88.17
29733;BME280;16643;43.158;25.302;2022-11-20T03:30:12;97254.66;;;17.66;87.98
29733;BME280;16643;43.158;25.302;2022-11-20T03:32:38;97261.47;;;17.68;87.74
29733;BME280;16643;43.158;25.302;2022-11-20T03:35:04;97261.47;;;17.68;87.88
29733;BME280;16643;43.158;25.302;2022-11-20T03:37:30;97261.19;;;17.84;86.53
29733;BME280;16643;43.158;25.302;2022-11-20T03:39:55;97252.19;;;17.75;87.43
29733;BME280;16643;43.158;25.302;2022-11-20T03:42:21;97264.59;;;17.73;87.76
29733;BME280;16643;43.158;25.302;2022-11-20T03:45:05;97266.69;;;17.81;86.71
29733;BME280;16643;43.158;25.302;2022-11-20T03:47:31;97264.28;;;17.78;86.50
29733;BME280;16643;43.158;25.302;2022-11-20T03:49:56;97283.34;;;17.93;86.18
29733;BME280;16643;43.158;25.302;2022-11-20T03:52:22;97274.72;;;17.91;86.14
29733;BME280;16643;43.158;25.302;2022-11-20T03:54:47;97298.78;;;17.97;85.85
29733;BME280;16643;43.158;25.302;2022-11-20T03:57:13;97294.56;;;17.95;85.73
29733;BME280;16643;43.158;25.302;2022-11-20T03:59:39;97295.88;;;17.89;85.68
29733;BME280;16643;43.158;25.302;2022-11-20T04:02:04;97278.53;;;17.87;85.37
29733;BME280;16643;43.158;25.302;2022-11-20T04:04:30;97292.94;;;17.94;85.19
29733;BME280;16643;43.158;25.302;2022-11-20T04:06:55;97294.16;;;18.01;84.82
29733;BME280;16643;43.158;25.302;2022-11-20T04:09:21;97317.66;;;18.15;84.69
29733;BME280;16643;43.158;25.302;2022-11-20T04:11:46;97308.56;;;17.95;84.85
29733;BME280;16643;43.158;25.302;2022-11-20T04:14:14;97303.31;;;17.95;84.29
29733;BME280;16643;43.158;25.302;2022-11-20T04:16:40;97296.78;;;18.01;84.39
29733;BME280;16643;43.158;25.302;2022-11-20T04:19:10;97322.75;;;18.05;84.75
29733;BME280;16643;43.158;25.302;2022-11-20T04:21:40;97338.44;;;18.18;84.52
29733;BME280;16643;43.158;25.302;2022-11-20T04:24:06;97337.00;;;18.14;84.99
29733;BME280;16643;43.158;25.302;2022-11-20T04:26:32;97331.97;;;18.11;84.83
29733;BME280;16643;43.158;25.302;2022-11-20T04:28:58;97352.84;;;18.01;85.89
29733;BME280;16643;43.158;25.302;2022-11-20T04:31:26;97346.91;;;17.87;86.80
29733;BME280;16643;43.158;25.302;2022-11-20T04:33:52;97328.41;;;17.75;86.05
29733;BME280;16643;43.158;25.302;2022-11-20T04:36:22;97366.63;;;18.05;85.30
29733;BME280;16643;43.158;25.302;2022-11-20T04:38:59;97376.81;;;18.09;85.92
29733;BME280;16643;43.158;25.302;2022-11-20T04:41:27;97337.56;;;17.83;85.87
29733;BME280;16643;43.158;25.302;2022-11-20T04:43:55;97365.66;;;18.06;85.87
29733;BME280;16643;43.158;25.302;2022-11-20T04:46:33;97363.66;;;18.09;85.38
29733;BME280;16643;43.158;25.302;2022-11-20T04:48:59;97340.91;;;17.85;86.52
29733;BME280;16643;43.158;25.302;2022-11-20T04:51:24;97342.81;;;17.83;86.38
29733;BME280;16643;43.158;25.302;2022-11-20T04:53:50;97368.75;;;18.00;85.68
29733;BME280;16643;43.158;25.302;2022-11-20T04:56:16;97372.88;;;17.91;86.01
29733;BME280;16643;43.158;25.302;2022-11-20T04:58:42;97377.03;;;17.70;86.23
29733;BME280;16643;43.158;25.302;2022-11-20T05:01:12;97384.47;;;17.51;85.81
29733;BME280;16643;43.158;25.302;2022-11-20T05:03:39;97359.38;;;17.34;86.20
29733;BME280;16643;43.158;25.302;2022-11-20T05:06:06;97385.13;;;17.16;87.66
29733;BME280;16643;43.158;25.302;2022-11-20T05:08:32;97377.47;;;17.00;85.87
29733;BME280;16643;43.158;25.302;2022-11-20T05:13:27;97381.72;;;16.63;84.66
29733;BME280;16643;43.158;25.302;2022-11-20T05:15:53;97385.44;;;16.20;85.46
29733;BME280;16643;43.158;25.302;2022-11-20T05:18:18;97373.13;;;15.67;87.14
29733;BME280;16643;43.158;25.302;2022-11-20T05:20:44;97374.97;;;15.50;86.07
29733;BME280;16643;43.158;25.302;2022-11-20T05:23:09;97366.63;;;15.01;85.99
29733;BME280;16643;43.158;25.302;2022-11-20T05:25:35;97392.69;;;14.74;88.38
29733;BME280;16643;43.158;25.302;2022-11-20T05:28:01;97393.91;;;14.37;89.34
29733;BME280;16643;43.158;25.302;2022-11-20T05:30:26;97410.88;;;14.46;89.69
29733;BME280;16643;43.158;25.302;2022-11-20T05:32:52;97413.25;;;14.50;89.46
29733;BME280;16643;43.158;25.302;2022-11-20T05:35:17;97403.97;;;14.45;89.08
29733;BME280;16643;43.158;25.302;2022-11-20T05:37:43;97408.69;;;14.38;89.14
29733;BME280;16643;43.158;25.302;2022-11-20T05:40:09;97424.81;;;14.31;90.56
29733;BME280;16643;43.158;25.302;2022-11-20T05:42:35;97434.34;;;14.16;89.31
29733;BME280;16643;43.158;25.302;2022-11-20T05:45:03;97438.38;;;13.90;91.25
29733;BME280;16643;43.158;25.302;2022-11-20T05:47:33;97443.41;;;13.62;94.60
29733;BME280;16643;43.158;25.302;2022-11-20T05:50:00;97464.03;;;13.66;94.20
29733;BME280;16643;43.158;25.302;2022-11-20T05:52:29;97457.47;;;13.26;95.20
29733;BME280;16643;43.158;25.302;2022-11-20T05:54:55;97439.28;;;12.90;95.65
29733;BME280;16643;43.158;25.302;2022-11-20T05:57:21;97460.06;;;12.75;96.86
29733;BME280;16643;43.158;25.302;2022-11-20T05:59:46;97442.09;;;12.68;98.28
29733;BME280;16643;43.158;25.302;2022-11-20T06:02:12;97469.88;;;12.87;97.86
29733;BME280;16643;43.158;25.302;2022-11-20T06:04:37;97470.19;;;12.81;98.21
29733;BME280;16643;43.158;25.302;2022-11-20T06:07:04;97480.81;;;12.59;99.26
29733;BME280;16643;43.158;25.302;2022-11-20T06:09:30;97456.25;;;12.28;100.00
29733;BME280;16643;43.158;25.302;2022-11-20T06:11:56;97461.47;;;12.46;99.24
29733;BME280;16643;43.158;25.302;2022-11-20T06:14:21;97494.41;;;12.65;100.00
29733;BME280;16643;43.158;25.302;2022-11-20T06:16:47;97483.22;;;12.63;99.39
29733;BME280;16643;43.158;25.302;2022-11-20T06:19:12;97489.41;;;12.25;100.00
29733;BME280;16643;43.158;25.302;2022-11-20T06:21:38;97492.06;;;12.23;100.00
29733;BME280;16643;43.158;25.302;2022-11-20T06:24:04;97497.88;;;12.30;100.00
29733;BME280;16643;43.158;25.302;2022-11-20T06:26:30;97502.97;;;12.31;100.00
29733;BME280;16643;43.158;25.302;2022-11-20T06:28:56;97478.16;;;12.06;100.00
29733;BME280;16643;43.158;25.302;2022-11-20T06:31:23;97522.81;;;12.17;100.00
29733;BME280;16643;43.158;25.302;2022-11-20T06:33:49;97525.66;;;11.92;100.00
29733;BME280;16643;43.158;25.302;2022-11-20T06:36:17;97533.06;;;11.62;100.00
29733;BME280;16643;43.158;25.302;2022-11-20T06:38:43;97530.03;;;11.71;100.00
29733;BME280;16643;43.158;25.302;2022-11-20T06:41:15;97515.22;;;11.53;100.00
29733;BME280;16643;43.158;25.302;2022-11-20T06:43:41;97524.22;;;11.46;100.00
29733;BME280;16643;43.158;25.302;2022-11-20T06:46:08;97549.22;;;11.50;100.00
29733;BME280;16643;43.158;25.302;2022-11-20T06:48:34;97571.44;;;11.57;100.00
29733;BME280;16643;43.158;25.302;2022-11-20T06:51:03;97590.31;;;11.42;100.00
29733;BME280;16643;43.158;25.302;2022-11-20T06:53:29;97549.84;;;11.14;100.00
29733;BME280;16643;43.158;25.302;2022-11-20T06:55:55;97585.38;;;11.36;100.00
29733;BME280;16643;43.158;25.302;2022-11-20T06:58:21;97571.44;;;11.16;100.00
29733;BME280;16643;43.158;25.302;2022-11-20T07:00:47;97585.84;;;11.03;100.00
29733;BME280;16643;43.158;25.302;2022-11-20T07:03:13;97605.53;;;11.09;100.00
29733;BME280;16643;43.158;25.302;2022-11-20T07:05:39;97593.94;;;10.96;100.00
29733;BME280;16643;43.158;25.302;2022-11-20T07:08:05;97615.72;;;10.93;100.00
29733;BME280;16643;43.158;25.302;2022-11-20T07:10:31;97616.78;;;11.09;100.00
29733;BME280;16643;43.158;25.302;2022-11-20T07:12:57;97605.88;;;10.79;100.00
29733;BME280;16643;43.158;25.302;2022-11-20T07:15:24;97632.19;;;10.94;100.00
29733;BME280;16643;43.158;25.302;2022-11-20T07:17:51;97639.97;;;10.94;100.00
29733;BME280;16643;43.158;25.302;2022-11-20T07:20:17;97619.81;;;10.77;100.00
29733;BME280;16643;43.158;25.302;2022-11-20T07:22:43;97636.75;;;10.87;100.00
29733;BME280;16643;43.158;25.302;2022-11-20T07:25:09;97634.16;;;10.87;100.00
29733;BME280;16643;43.158;25.302;2022-11-20T07:27:35;97622.25;;;10.60;100.00
29733;BME280;16643;43.158;25.302;2022-11-20T07:30:02;97644.53;;;10.65;100.00
29733;BME280;16643;43.158;25.302;2022-11-20T07:32:27;97645.09;;;10.50;100.00
29733;BME280;16643;43.158;25.302;2022-11-20T07:34:53;97629.31;;;10.56;100.00
29733;BME280;16643;43.158;25.302;2022-11-20T07:37:19;97609.31;;;10.58;100.00
29733;BME280;16643;43.158;25.302;2022-11-20T07:39:44;97602.09;;;10.65;100.00
29733;BME280;16643;43.158;25.302;2022-11-20T07:42:10;97612.91;;;10.54;100.00
29733;BME280;16643;43.158;25.302;2022-11-20T07:44:38;97614.72;;;10.52;100.00
29733;BME280;16643;43.158;25.302;2022-11-20T07:47:03;97600.69;;;10.34;100.00
29733;BME280;16643;43.158;25.302;2022-11-20T07:49:29;97625.06;;;10.53;100.00
29733;BME280;16643;43.158;25.302;2022-11-20T07:51:55;97634.91;;;10.45;100.00
29733;BME280;16643;43.158;25.302;2022-11-20T07:54:21;97627.75;;;10.50;100.00
29733;BME280;16643;43.158;25.302;2022-11-20T07:56:47;97640.19;;;10.42;100.00
29733;BME280;16643;43.158;25.302;2022-11-20T07:59:13;97614.72;;;10.29;100.00
29733;BME280;16643;43.158;25.302;2022-11-20T08:01:39;97618.31;;;10.49;100.00
29733;BME280;16643;43.158;25.302;2022-11-20T08:04:06;97612.38;;;10.46;100.00
29733;BME280;16643;43.158;25.302;2022-11-20T08:06:31;97610.06;;;10.38;100.00
29733;BME280;16643;43.158;25.302;2022-11-20T08:08:57;97643.94;;;10.35;100.00
29733;BME280;16643;43.158;25.302;2022-11-20T08:11:23;97662.84;;;10.62;100.00
29733;BME280;16643;43.158;25.302;2022-11-20T08:14:07;97671.03;;;10.75;100.00
29733;BME280;16643;43.158;25.302;2022-11-20T08:16:46;97637.13;;;10.78;100.00
29733;BME280;16643;43.158;25.302;2022-11-20T08:19:13;97639.88;;;10.95;100.00
29733;BME280;16643;43.158;25.302;2022-11-20T08:21:40;97644.38;;;10.91;100.00
29733;BME280;16643;43.158;25.302;2022-11-20T08:24:06;97645.81;;;10.99;100.00
29733;BME280;16643;43.158;25.302;2022-11-20T08:26:33;97618.19;;;10.96;100.00
29733;BME280;16643;43.158;25.302;2022-11-20T08:28:59;97613.34;;;11.09;100.00
29733;BME280;16643;43.158;25.302;2022-11-20T08:31:26;97648.97;;;11.28;100.00
29733;BME280;16643;43.158;25.302;2022-11-20T08:33:52;97623.94;;;11.04;100.00
29733;BME280;16643;43.158;25.302;2022-11-20T08:36:19;97627.72;;;11.17;100.00
29733;BME280;16643;43.158;25.302;2022-11-20T08:38:53;97614.59;;;11.20;100.00
29733;BME280;16643;43.158;25.302;2022-11-20T08:41:20;97634.47;;;11.43;100.00
29733;BME280;16643;43.158;25.302;2022-11-20T08:44:07;97632.59;;;11.47;100.00
29733;BME280;16643;43.158;25.302;2022-11-20T08:46:37;97627.69;;;11.61;100.00
29733;BME280;16643;43.158;25.302;2022-11-20T08:49:04;97624.56;;;11.73;100.00
29733;BME280;16643;43.158;25.302;2022-11-20T08:51:30;97613.59;;;11.65;100.00
29733;BME280;16643;43.158;25.302;2022-11-20T08:53:57;97613.94;;;11.37;100.00
29733;BME280;16643;43.158;25.302;2022-11-20T08:56:23;97600.78;;;11.40;100.00
29733;BME280;16643;43.158;25.302;2022-11-20T08:58:50;97593.91;;;11.39;100.00
29733;BME280;16643;43.158;25.302;2022-11-20T09:01:16;97579.31;;;11.35;100.00
29733;BME280;16643;43.158;25.302;2022-11-20T09:03:42;97598.25;;;11.59;100.00
29733;BME280;16643;43.158;25.302;2022-11-20T09:06:08;97561.63;;;11.43;100.00
29733;BME280;16643;43.158;25.302;2022-11-20T09:08:34;97594.69;;;11.61;100.00
29733;BME280;16643;43.158;25.302;2022-11-20T09:11:01;97564.28;;;11.62;100.00
29733;BME280;16643;43.158;25.302;2022-11-20T09:13:28;97579.13;;;11.80;100.00
29733;BME280;16643;43.158;25.302;2022-11-20T09:16:02;97587.94;;;11.96;100.00
29733;BME280;16643;43.158;25.302;2022-11-20T09:18:29;97580.00;;;11.81;100.00
29733;BME280;16643;43.158;25.302;2022-11-20T09:21:00;97588.16;;;11.72;100.00
29733;BME280;16643;43.158;25.302;2022-11-20T09:23:27;97583.22;;;11.86;100.00
29733;BME280;16643;43.158;25.302;2022-11-20T09:25:56;97576.56;;;11.99;100.00
29733;BME280;16643;43.158;25.302;2022-11-20T09:28:27;97572.91;;;11.84;100.00
29733;BME280;16643;43.158;25.302;2022-11-20T09:30:53;97576.06;;;11.91;100.00
29733;BME280;16643;43.158;25.302;2022-11-20T09:33:18;97539.03;;;11.64;100.00
29733;BME280;16643;43.158;25.302;2022-11-20T09:35:44;97556.56;;;11.81;100.00
29733;BME280;16643;43.158;25.302;2022-11-20T09:38:10;97544.03;;;11.89;100.00
29733;BME280;16643;43.158;25.302;2022-11-20T09:40:40;97539.06;;;12.03;100.00
29733;BME280;16643;43.158;25.302;2022-11-20T09:51:57;97535.41;;;12.26;100.00
29733;BME280;16643;43.158;25.302;2022-11-20T09:54:31;97556.47;;;12.40;100.00
29733;BME280;16643;43.158;25.302;2022-11-20T09:57:14;97540.09;;;12.36;100.00
29733;BME280;16643;43.158;25.302;2022-11-20T09:59:44;97554.75;;;12.39;100.00
29733;BME280;16643;43.158;25.302;2022-11-20T10:04:57;97543.91;;;12.48;100.00
29733;BME280;16643;43.158;25.302;2022-11-20T10:07:51;97527.34;;;12.49;100.00
29733;BME280;16643;43.158;25.302;2022-11-20T10:10:51;97524.94;;;12.45;100.00
29733;BME280;16643;43.158;25.302;2022-11-20T10:16:02;97539.47;;;12.86;100.00
29733;BME280;16643;43.158;25.302;2022-11-20T10:21:30;97528.41;;;13.17;100.00
29733;BME280;16643;43.158;25.302;2022-11-20T10:24:07;97514.38;;;13.01;100.00
29733;BME280;16643;43.158;25.302;2022-11-20T10:29:47;97509.63;;;12.56;100.00
29733;BME280;16643;43.158;25.302;2022-11-20T10:32:20;97512.31;;;12.54;100.00
29733;BME280;16643;43.158;25.302;2022-11-20T10:34:51;97518.72;;;12.30;100.00
29733;BME280;16643;43.158;25.302;2022-11-20T10:37:29;97515.69;;;12.02;100.00
29733;BME280;16643;43.158;25.302;2022-11-20T10:40:27;97494.91;;;12.19;100.00
29733;BME280;16643;43.158;25.302;2022-11-20T10:43:13;97505.59;;;12.31;100.00
29733;BME280;16643;43.158;25.302;2022-11-20T10:46:00;97516.22;;;12.46;100.00
29733;BME280;16643;43.158;25.302;2022-11-20T10:48:28;97510.81;;;12.67;100.00
29733;BME280;16643;43.158;25.302;2022-11-20T10:53:40;97512.44;;;12.87;100.00
29733;BME280;16643;43.158;25.302;2022-11-20T10:59:04;97520.97;;;12.91;100.00
29733;BME280;16643;43.158;25.302;2022-11-20T11:01:42;97518.28;;;12.92;100.00
29733;BME280;16643;43.158;25.302;2022-11-20T11:07:12;97519.81;;;12.79;100.00
29733;BME280;16643;43.158;25.302;2022-11-20T11:09:47;97531.53;;;12.70;100.00
29733;BME280;16643;43.158;25.302;2022-11-20T11:12:13;97492.41;;;12.34;100.00
29733;BME280;16643;43.158;25.302;2022-11-20T11:14:46;97496.66;;;12.37;100.00
29733;BME280;16643;43.158;25.302;2022-11-20T11:17:28;97520.38;;;12.31;100.00
29733;BME280;16643;43.158;25.302;2022-11-20T11:20:18;97517.84;;;12.11;100.00
29733;BME280;16643;43.158;25.302;2022-11-20T11:22:49;97525.38;;;11.98;100.00
29733;BME280;16643;43.158;25.302;2022-11-20T11:25:30;97507.78;;;11.84;100.00
29733;BME280;16643;43.158;25.302;2022-11-20T11:28:02;97518.34;;;11.81;100.00
29733;BME280;16643;43.158;25.302;2022-11-20T11:30:29;97513.75;;;11.86;100.00
29733;BME280;16643;43.158;25.302;2022-11-20T11:33:10;97513.38;;;11.95;100.00
29733;BME280;16643;43.158;25.302;2022-11-20T11:35:47;97511.72;;;12.12;100.00
29733;BME280;16643;43.158;25.302;2022-11-20T11:38:17;97531.28;;;12.20;100.00
29733;BME280;16643;43.158;25.302;2022-11-20T11:40:46;97560.72;;;12.04;100.00
29733;BME280;16643;43.158;25.302;2022-11-20T11:43:38;97572.09;;;11.82;100.00
29733;BME280;16643;43.158;25.302;2022-11-20T11:46:31;97562.59;;;11.41;100.00
29733;BME280;16643;43.158;25.302;2022-11-20T11:57:23;97575.47;;;11.23;100.00
29733;BME280;16643;43.158;25.302;2022-11-20T12:05:40;97548.41;;;10.85;100.00
29733;BME280;16643;43.158;25.302;2022-11-20T12:10:57;97562.38;;;11.05;100.00
29733;BME280;16643;43.158;25.302;2022-11-20T12:16:00;97536.47;;;10.81;100.00
29733;BME280;16643;43.158;25.302;2022-11-20T12:18:27;97546.31;;;10.73;100.00
29733;BME280;16643;43.158;25.302;2022-11-20T12:21:12;97548.84;;;10.75;100.00
29733;BME280;16643;43.158;25.302;2022-11-20T12:31:51;97548.69;;;10.79;100.00
29733;BME280;16643;43.158;25.302;2022-11-20T12:37:31;97537.88;;;11.10;100.00
29733;BME280;16643;43.158;25.302;2022-11-20T12:43:18;97533.34;;;11.15;100.00
29733;BME280;16643;43.158;25.302;2022-11-20T12:51:53;97542.75;;;11.38;100.00
29733;BME280;16643;43.158;25.302;2022-11-20T12:59:58;97514.41;;;11.32;100.00
29733;BME280;16643;43.158;25.302;2022-11-20T13:08:16;97494.44;;;11.12;100.00
29733;BME280;16643;43.158;25.302;2022-11-20T13:19:03;97489.03;;;10.97;100.00
29733;BME280;16643;43.158;25.302;2022-11-20T13:24:06;97490.03;;;11.14;100.00
29733;BME280;16643;43.158;25.302;2022-11-20T13:26:32;97489.34;;;11.09;100.00
29733;BME280;16643;43.158;25.302;2022-11-20T13:29:09;97500.09;;;11.02;100.00
29733;BME280;16643;43.158;25.302;2022-11-20T13:31:40;97508.75;;;11.22;100.00
29733;BME280;16643;43.158;25.302;2022-11-20T13:34:13;97529.94;;;11.34;100.00
29733;BME280;16643;43.158;25.302;2022-11-20T13:36:49;97527.16;;;11.38;100.00
29733;BME280;16643;43.158;25.302;2022-11-20T13:39:28;97535.53;;;11.45;100.00
29733;BME280;16643;43.158;25.302;2022-11-20T13:41:57;97545.81;;;11.27;100.00
29733;BME280;16643;43.158;25.302;2022-11-20T13:46:52;97545.03;;;11.46;100.00
29733;BME280;16643;43.158;25.302;2022-11-20T13:49:25;97548.34;;;11.49;100.00
29733;BME280;16643;43.158;25.302;2022-11-20T14:00:16;97619.03;;;11.81;100.00
29733;BME280;16643;43.158;25.302;2022-11-20T14:02:44;97638.84;;;11.63;100.00
29733;BME280;16643;43.158;25.302;2022-11-20T14:05:22;97651.47;;;11.52;100.00
29733;BME280;16643;43.158;25.302;2022-11-20T14:07:50;97671.81;;;11.42;100.00
29733;BME280;16643;43.158;25.302;2022-11-20T14:10:24;97673.09;;;11.32;100.00
29733;BME280;16643;43.158;25.302;2022-11-20T14:12:50;97635.84;;;11.10;100.00
29733;BME280;16643;43.158;25.302;2022-11-20T14:15:42;97650.59;;;11.31;100.00
29733;BME280;16643;43.158;25.302;2022-11-20T14:18:14;97627.78;;;11.38;100.00
29733;BME280;16643;43.158;25.302;2022-11-20T14:20:41;97581.22;;;11.10;100.00
29733;BME280;16643;43.158;25.302;2022-11-20T14:23:09;97602.09;;;11.08;100.00
29733;BME280;16643;43.158;25.302;2022-11-20T14:25:35;97582.41;;;11.03;100.00
29733;BME280;16643;43.158;25.302;2022-11-20T14:28:04;97598.69;;;11.28;100.00
29733;BME280;16643;43.158;25.302;2022-11-20T14:30:44;97611.50;;;11.33;100.00
29733;BME280;16643;43.158;25.302;2022-11-20T14:33:12;97608.91;;;11.33;100.00
29733;BME280;16643;43.158;25.302;2022-11-20T14:35:46;97648.69;;;11.56;100.00
29733;BME280;16643;43.158;25.302;2022-11-20T14:38:15;97633.91;;;11.37;100.00
29733;BME280;16643;43.158;25.302;2022-11-20T14:40:41;97637.75;;;11.48;100.00